Time;durP1;ratioP1;P1;durP2;ratioP2;P2;SDS_P1;SDS_P2;PMS_P1;PMS_P2;Temp;Humidity;BMP_temperature;BMP_pressure;BME280_temperature;BME280_humidity;BME280_pressure;Samples;Min_cycle;Max_cycle;Signal;HPM_P1;HPM_P2
2022/04/02 00:02:04;;;;;;;8.87;3.70;;;;;;;0.91;55.90;99620.44;1695656;84;21008;-72
2022/04/02 00:04:31;;;;;;;11.43;4.43;;;;;;;0.91;56.10;99623.86;1700760;84;21032;-72
2022/04/02 00:06:59;;;;;;;10.87;4.83;;;;;;;0.91;56.09;99623.02;1700470;84;21019;-72
2022/04/02 00:09:26;;;;;;;10.33;4.73;;;;;;;0.89;56.35;99619.17;1700491;84;21027;-72
2022/04/02 00:11:53;;;;;;;7.53;3.90;;;;;;;0.91;56.66;99618.70;1700806;84;21498;-72
2022/04/02 00:14:20;;;;;;;9.90;3.90;;;;;;;0.89;56.82;99612.28;1700661;84;20943;-72
2022/04/02 00:16:47;;;;;;;6.83;3.80;;;;;;;0.92;56.91;99615.27;1700450;84;21465;-72
2022/04/02 00:19:14;;;;;;;8.43;4.00;;;;;;;0.91;57.20;99607.09;1700708;84;21079;-72
2022/04/02 00:21:42;;;;;;;9.57;3.90;;;;;;;0.93;57.07;99608.38;1700413;84;21012;-72
2022/04/02 00:24:09;;;;;;;7.50;3.77;;;;;;;0.96;57.29;99604.03;1700727;84;21474;-72
2022/04/02 00:26:37;;;;;;;8.03;4.07;;;;;;;1.00;57.27;99607.42;1700401;84;21501;-72
2022/04/02 00:29:07;;;;;;;8.07;3.87;;;;;;;1.03;57.37;99605.69;1700651;84;21524;-71
2022/04/02 00:31:33;;;;;;;11.27;4.87;;;;;;;1.05;57.25;99604.36;1700500;84;21011;-72
2022/04/02 00:34:01;;;;;;;8.87;4.10;;;;;;;1.10;57.31;99603.88;1700515;84;21016;-71
2022/04/02 00:36:28;;;;;;;9.40;3.80;;;;;;;1.13;57.21;99606.42;1700531;84;21962;-72
2022/04/02 00:38:55;;;;;;;9.53;3.73;;;;;;;1.15;57.02;99604.69;1700495;84;21031;-72
2022/04/02 00:41:22;;;;;;;9.53;3.53;;;;;;;1.14;56.93;99604.69;1700333;84;21008;-72
2022/04/02 00:44:02;;;;;;;6.47;3.07;;;;;;;1.13;56.95;99603.84;1700531;84;21016;-72
2022/04/02 00:46:30;;;;;;;10.43;3.50;;;;;;;1.15;57.03;99599.52;1677487;84;21164;-72
2022/04/02 00:48:57;;;;;;;8.00;4.10;;;;;;;1.15;57.04;99590.48;1674912;85;21158;-72
2022/04/02 00:51:24;;;;;;;7.67;3.53;;;;;;;1.17;57.17;99593.07;1675148;85;21516;-72
2022/04/02 00:53:52;;;;;;;7.30;3.80;;;;;;;1.15;57.32;99593.52;1674954;85;21288;-72
2022/04/02 00:56:20;;;;;;;6.17;3.43;;;;;;;1.13;57.23;99595.25;1675368;85;21015;-72
2022/04/02 00:58:47;;;;;;;8.97;3.80;;;;;;;1.13;57.47;99596.09;1675062;85;21284;-80
2022/04/02 01:01:16;;;;;;;6.83;3.60;;;;;;;1.09;57.40;99591.42;1675333;85;21123;-79
2022/04/02 01:03:45;;;;;;;8.10;3.83;;;;;;;1.11;57.58;99592.70;1675160;85;21007;-79
2022/04/02 01:06:13;;;;;;;7.07;3.27;;;;;;;1.11;57.68;99591.41;1675242;85;21099;-72
2022/04/02 01:08:40;;;;;;;9.93;3.47;;;;;;;1.09;57.73;99592.70;1675150;85;21078;-72
2022/04/02 01:11:09;;;;;;;6.93;3.63;;;;;;;1.08;57.73;99591.01;1675278;85;21038;-79
2022/04/02 01:13:37;;;;;;;11.83;4.03;;;;;;;1.08;57.82;99591.42;1673135;85;21147;-72
2022/04/02 01:16:06;;;;;;;6.57;3.40;;;;;;;1.07;57.86;99594.88;1672029;85;21043;-79
2022/04/02 01:18:35;;;;;;;8.37;4.03;;;;;;;1.06;57.83;99597.06;1671608;85;21497;-72
2022/04/02 01:21:03;;;;;;;9.47;3.77;;;;;;;1.06;57.78;99594.48;1671592;85;21000;-72
2022/04/02 01:23:32;;;;;;;5.83;3.40;;;;;;;1.06;57.92;99602.22;1671022;85;21028;-72
2022/04/02 01:26:04;;;;;;;9.77;3.90;;;;;;;1.06;57.81;99600.93;1671064;85;21525;-72
2022/04/02 01:28:34;;;;;;;7.67;3.93;;;;;;;1.07;57.60;99597.02;1671164;85;21368;-71
2022/04/02 01:31:05;;;;;;;9.50;4.00;;;;;;;1.09;57.48;99600.89;1671606;85;21072;-72
2022/04/02 01:33:34;;;;;;;7.30;3.93;;;;;;;1.09;57.43;99599.16;1671617;85;21012;-71
2022/04/02 01:36:05;;;;;;;;;;;;;;;1.09;57.17;99600.89;1674055;85;21457;-72
2022/04/02 01:38:34;;;;;;;8.10;3.60;;;;;;;1.09;56.97;99600.89;1669880;85;21207;-72
2022/04/02 01:41:03;;;;;;;8.27;3.97;;;;;;;1.11;56.76;99603.03;1671575;85;21000;-72
2022/04/02 01:43:33;;;;;;;8.30;3.37;;;;;;;1.11;56.57;99607.75;1670882;85;21049;-72
2022/04/02 01:46:03;;;;;;;9.83;3.33;;;;;;;1.13;56.46;99611.58;1675653;84;21071;-72
2022/04/02 01:48:32;;;;;;;8.83;3.50;;;;;;;1.14;56.44;99607.27;1694914;84;21039;-72
2022/04/02 01:51:01;;;;;;;10.85;4.20;;;;;;;1.15;56.40;99618.88;1693522;84;21155;-72
2022/04/02 01:53:30;;;;;;;8.33;3.93;;;;;;;1.13;56.35;99611.58;1694682;84;21082;-73
2022/04/02 01:55:58;;;;;;;8.17;4.00;;;;;;;1.09;56.35;99614.64;1668261;86;21043;-72
2022/04/02 01:58:30;;;;;;;9.13;3.33;;;;;;;1.08;56.35;99614.65;1679526;85;21036;-77
2022/04/02 02:00:58;;;;;;;7.93;3.93;;;;;;;1.05;56.52;99618.55;1679852;85;21032;-72
2022/04/02 02:03:25;;;;;;;10.37;3.77;;;;;;;1.04;56.54;99621.58;1680077;85;21181;-72
2022/04/02 02:05:54;;;;;;;10.83;3.60;;;;;;;1.01;56.51;99622.91;1677180;85;21009;-72
2022/04/02 02:08:23;;;;;;;7.10;3.53;;;;;;;1.00;56.51;99621.20;1675706;85;21504;-72
2022/04/02 02:11:08;;;;;;;6.03;3.67;;;;;;;0.98;56.54;99628.10;1675649;85;20959;-72
2022/04/02 02:13:46;;;;;;;10.80;3.70;;;;;;;0.96;56.65;99619.52;1674886;85;21031;-74
2022/04/02 02:16:15;;;;;;;7.87;3.20;;;;;;;0.95;56.74;99626.84;1675423;85;21241;-79
2022/04/02 02:18:43;;;;;;;7.20;3.80;;;;;;;0.95;56.89;99620.39;1675647;85;21047;-72
2022/04/02 02:21:11;;;;;;;8.00;3.73;;;;;;;0.95;56.74;99621.69;1675442;85;21012;-72
2022/04/02 02:23:40;;;;;;;6.47;3.67;;;;;;;0.94;56.83;99620.39;1675729;85;21094;-72
2022/04/02 02:26:07;;;;;;;7.00;3.80;;;;;;;0.91;56.71;99624.30;1675547;85;21027;-72
2022/04/02 02:28:34;;;;;;;6.17;3.60;;;;;;;0.88;56.78;99614.86;1675793;85;21500;-72
2022/04/02 02:31:01;;;;;;;8.43;3.60;;;;;;;0.86;56.76;99624.38;1655953;85;21588;-72
2022/04/02 02:36:17;;;;;;;8.07;3.73;;;;;;;0.82;56.90;99630.41;1675472;85;21043;-72
2022/04/02 02:38:47;;;;;;;9.13;3.50;;;;;;;0.80;56.92;99633.44;1674933;85;21008;-73
2022/04/02 02:41:20;;;;;;;8.03;3.57;;;;;;;0.77;56.95;99629.16;1674609;85;22025;-72
2022/04/02 02:43:49;;;;;;;7.78;3.37;;;;;;;0.77;57.05;99633.47;1675514;85;22177;-72
2022/04/02 02:46:18;;;;;;;10.77;4.03;;;;;;;0.74;57.02;99630.48;1678092;84;21090;-72
2022/04/02 02:48:47;;;;;;;6.27;3.10;;;;;;;0.70;57.04;99638.28;1703102;83;20905;-73
2022/04/02 02:51:15;;;;;;;7.87;3.67;;;;;;;0.68;57.20;99647.30;1703355;84;21048;-74
2022/04/02 02:53:44;;;;;;;8.70;3.97;;;;;;;0.65;57.25;99641.73;1669136;84;21126;-79
2022/04/02 02:56:12;;;;;;;7.53;3.37;;;;;;;0.64;57.31;99641.77;1669295;85;21032;-72
2022/04/02 02:58:41;;;;;;;7.57;3.67;;;;;;;0.59;57.27;99644.82;1669207;86;21032;-72
2022/04/02 03:01:11;;;;;;;9.00;3.60;;;;;;;0.53;57.27;99637.14;1669327;85;21043;-73
2022/04/02 03:03:38;;;;;;;7.97;3.65;;;;;;;0.47;57.36;99639.31;1669550;85;21063;-72
2022/04/02 03:06:08;;;;;;;11.23;4.93;;;;;;;0.43;57.51;99641.06;1669402;85;21127;-72
2022/04/02 03:08:38;;;;;;;10.43;3.98;;;;;;;0.41;57.63;99641.50;1668881;85;21580;-72
2022/04/02 03:11:06;;;;;;;9.47;4.00;;;;;;;0.38;57.73;99638.95;1669209;85;21020;-72
2022/04/02 03:13:38;;;;;;;10.80;4.50;;;;;;;0.37;57.84;99645.42;1669218;86;21040;-72
2022/04/02 03:16:06;;;;;;;7.67;3.70;;;;;;;0.33;57.81;99641.14;1668450;85;21407;-72
2022/04/02 03:18:34;;;;;;;7.13;3.60;;;;;;;0.29;58.01;99640.77;1669134;86;21038;-79
2022/04/02 03:21:03;;;;;;;5.43;3.30;;;;;;;0.27;58.10;99644.63;1669307;85;21060;-72
2022/04/02 03:23:30;;;;;;;9.93;3.77;;;;;;;0.28;58.19;99646.36;1669100;86;21499;-72
2022/04/02 03:25:58;;;;;;;7.23;3.80;;;;;;;0.24;58.21;99645.94;1669338;84;21280;-72
2022/04/02 03:28:26;;;;;;;11.97;3.80;;;;;;;0.24;58.31;99645.09;1669181;86;21612;-72
2022/04/02 03:30:53;;;;;;;8.00;3.57;;;;;;;0.20;58.38;99642.98;1669334;86;21517;-73
2022/04/02 03:33:20;;;;;;;10.23;3.93;;;;;;;0.15;58.41;99641.71;1669081;86;21070;-72
2022/04/02 03:35:47;;;;;;;11.00;3.73;;;;;;;0.13;58.46;99641.30;1669164;86;21107;-72
2022/04/02 03:38:15;;;;;;;9.13;4.20;;;;;;;0.10;58.71;99643.89;1669110;86;20999;-80
2022/04/02 03:40:44;;;;;;;7.80;3.80;;;;;;;0.10;58.78;99643.89;1669321;86;21583;-72
2022/04/02 03:43:11;;;;;;;8.60;3.83;;;;;;;0.08;58.83;99645.18;1669052;84;21894;-79
2022/04/02 03:45:38;;;;;;;8.20;3.70;;;;;;;0.09;58.94;99653.80;1669235;86;21050;-72
2022/04/02 03:48:07;;;;;;;10.13;4.77;;;;;;;0.07;58.98;99650.36;1673918;85;21087;-72
2022/04/02 03:50:36;;;;;;;7.20;4.22;;;;;;;0.03;58.98;99652.52;1675483;85;21520;-72
2022/04/02 03:53:03;;;;;;;7.30;3.27;;;;;;;-0.01;59.07;99655.12;1675409;85;21508;-72
2022/04/02 03:55:32;;;;;;;8.30;3.47;;;;;;;-0.02;59.11;99656.43;1675440;85;21073;-72
2022/04/02 03:58:00;;;;;;;7.93;4.17;;;;;;;-0.05;59.27;99656.45;1675308;85;21039;-73
2022/04/02 04:00:27;;;;;;;8.10;4.07;;;;;;;-0.05;59.28;99648.73;1675813;85;21429;-72
2022/04/02 04:03:05;;;;;;;9.63;3.90;;;;;;;-0.06;59.36;99647.84;1675328;85;21505;-72
2022/04/02 04:05:33;;;;;;;7.77;3.80;;;;;;;-0.07;59.39;99653.88;1675331;85;21031;-72
2022/04/02 04:08:02;;;;;;;7.20;4.23;;;;;;;-0.08;59.46;99657.77;1675456;85;21818;-75
2022/04/02 04:10:30;;;;;;;10.13;3.87;;;;;;;-0.09;59.55;99659.89;1675565;85;21457;-72
2022/04/02 04:12:57;;;;;;;8.93;4.00;;;;;;;-0.09;59.64;99665.89;1675384;85;21038;-77
2022/04/02 04:15:26;;;;;;;7.30;4.10;;;;;;;-0.07;59.62;99677.50;1675360;85;21031;-72
2022/04/02 04:17:56;;;;;;;8.53;4.00;;;;;;;-0.07;59.71;99668.04;1675418;85;21070;-72
2022/04/02 04:20:23;;;;;;;7.30;3.60;;;;;;;-0.06;59.62;99679.20;1675664;85;21295;-72
2022/04/02 04:22:52;;;;;;;7.07;3.90;;;;;;;-0.06;59.63;99675.33;1675372;85;21043;-72
2022/04/02 04:25:22;;;;;;;7.20;3.47;;;;;;;-0.06;59.62;99684.34;1676633;84;21015;-73
2022/04/02 04:27:51;;;;;;;7.20;3.30;;;;;;;-0.06;59.69;99690.34;1690176;84;21048;-72
2022/04/02 04:30:19;;;;;;;8.27;3.60;;;;;;;-0.06;59.71;99684.34;1676951;84;21073;-78
2022/04/02 04:32:46;;;;;;;7.93;3.30;;;;;;;-0.06;59.72;99687.77;1684990;84;21111;-73
2022/04/02 04:35:13;;;;;;;9.47;3.80;;;;;;;-0.08;59.66;99685.66;1678029;84;21376;-73
2022/04/02 04:37:40;;;;;;;8.60;4.03;;;;;;;-0.08;59.70;99688.67;1675729;85;21027;-73
2022/04/02 04:40:10;;;;;;;8.10;4.10;;;;;;;-0.10;59.69;99691.24;1674751;85;21020;-73
2022/04/02 04:42:39;;;;;;;7.73;3.60;;;;;;;-0.11;59.74;99689.95;1676064;84;21034;-72
2022/04/02 04:45:07;;;;;;;10.60;4.73;;;;;;;-0.12;59.77;99695.98;1675553;85;21174;-72
2022/04/02 04:47:36;;;;;;;12.27;5.37;;;;;;;-0.13;59.84;99698.99;1703207;84;21042;-73
2022/04/02 04:50:04;;;;;;;11.27;5.20;;;;;;;-0.13;59.92;99704.58;1700161;84;22053;-79
2022/04/02 04:52:33;;;;;;;11.48;4.45;;;;;;;-0.15;59.76;99700.70;1668869;85;21027;-78
2022/04/02 04:55:02;;;;;;;17.83;7.63;;;;;;;-0.14;59.88;99705.42;1697339;84;21523;-78
2022/04/02 04:57:30;;;;;;;23.70;8.30;;;;;;;-0.16;59.86;99703.31;1668392;84;21132;-75
2022/04/02 04:59:59;;;;;;;22.37;6.73;;;;;;;-0.17;59.96;99706.30;1692771;83;21460;-79
2022/04/02 05:02:27;;;;;;;28.90;8.83;;;;;;;-0.16;60.02;99705.89;1712360;83;21043;-77
2022/04/02 05:04:55;;;;;;;15.63;6.07;;;;;;;-0.17;59.92;99707.58;1699758;84;21036;-79
2022/04/02 05:07:23;;;;;;;11.03;4.17;;;;;;;-0.17;59.97;99710.16;1699673;84;21560;-72
2022/04/02 05:09:52;;;;;;;15.53;6.27;;;;;;;-0.18;59.90;99708.89;1699811;84;22069;-72
2022/04/02 05:12:19;;;;;;;15.23;6.33;;;;;;;-0.19;59.91;99702.01;1699973;84;21520;-76
2022/04/02 05:14:49;;;;;;;12.57;5.63;;;;;;;-0.19;60.01;99712.31;1699282;84;21035;-75
2022/04/02 05:17:18;;;;;;;23.70;11.60;;;;;;;-0.19;60.00;99714.88;1671836;83;21035;-77
2022/04/02 05:19:46;;;;;;;40.33;21.17;;;;;;;-0.17;60.14;99714.45;1691633;84;21493;-75
2022/04/02 05:22:14;;;;;;;61.17;36.30;;;;;;;-0.14;60.06;99717.02;1669029;85;21134;-75
2022/04/02 05:24:45;;;;;;;13.70;7.03;;;;;;;-0.14;60.01;99720.47;1699469;84;21083;-79
2022/04/02 05:27:12;;;;;;;8.50;4.20;;;;;;;-0.14;59.99;99723.05;1700372;84;21039;-72
2022/04/02 05:29:40;;;;;;;8.33;4.07;;;;;;;-0.13;60.00;99719.59;1700150;84;21039;-73
2022/04/02 05:32:08;;;;;;;12.53;5.10;;;;;;;-0.10;60.07;99718.73;1696040;84;21130;-73
2022/04/02 05:34:35;;;;;;;10.23;4.83;;;;;;;-0.07;60.04;99725.16;1695489;84;21210;-72
2022/04/02 05:37:03;;;;;;;13.20;4.53;;;;;;;-0.05;60.00;99728.59;1699041;84;21027;-72
2022/04/02 05:39:30;;;;;;;9.77;4.60;;;;;;;-0.01;60.03;99719.97;1698596;84;21094;-72
2022/04/02 05:41:57;;;;;;;7.33;3.80;;;;;;;0.04;60.02;99731.55;1699001;83;21031;-76
2022/04/02 05:44:25;;;;;;;19.27;8.47;;;;;;;0.05;59.94;99727.66;1699769;84;21466;-72
2022/04/02 05:46:52;;;;;;;19.63;8.47;;;;;;;0.07;59.88;99719.49;1699212;84;21158;-78
2022/04/02 05:49:19;;;;;;;21.00;9.03;;;;;;;0.11;59.79;99726.77;1672771;85;20971;-79
2022/04/02 05:51:46;;;;;;;14.30;6.30;;;;;;;0.14;59.83;99721.59;1675261;85;21071;-73
2022/04/02 05:54:14;;;;;;;17.87;7.43;;;;;;;0.19;59.79;99734.02;1660073;85;21038;-72
2022/04/02 05:56:42;;;;;;;15.30;7.47;;;;;;;0.24;59.70;99731.43;1672878;85;21575;-72
2022/04/02 05:59:09;;;;;;;14.90;7.47;;;;;;;0.25;59.51;99737.88;1675609;85;21221;-73
2022/04/02 06:01:36;;;;;;;11.67;5.97;;;;;;;0.28;59.52;99732.70;1659605;85;21050;-75
2022/04/02 06:04:04;;;;;;;21.40;11.27;;;;;;;0.30;59.53;99739.97;1658349;85;21034;-78
2022/04/02 06:06:31;;;;;;;25.67;12.10;;;;;;;0.34;59.42;99735.23;1675213;85;21460;-78
2022/04/02 06:08:58;;;;;;;43.33;23.67;;;;;;;0.36;59.38;99742.53;1675774;85;21014;-74
2022/04/02 06:11:25;;;;;;;55.07;28.20;;;;;;;0.39;59.18;99739.09;1675278;85;21202;-78
2022/04/02 06:13:52;;;;;;;28.27;15.47;;;;;;;0.43;59.22;99738.19;1681154;83;21048;-77
2022/04/02 06:16:19;;;;;;;46.90;24.43;;;;;;;0.52;59.24;99746.29;1692638;84;21466;-78
2022/04/02 06:18:46;;;;;;;28.63;14.17;;;;;;;0.57;59.11;99738.09;1692751;84;21036;-77
2022/04/02 06:21:13;;;;;;;17.13;4.27;;;;;;;0.60;58.99;99738.91;1692532;84;21504;-79
2022/04/02 06:23:40;;;;;;;12.63;5.70;;;;;;;0.62;58.74;99742.35;1692695;84;21121;-72
2022/04/02 06:26:06;;;;;;;10.77;5.33;;;;;;;0.66;58.91;99741.88;1692529;83;21573;-73
2022/04/02 06:28:34;;;;;;;8.37;4.60;;;;;;;0.70;58.68;99744.88;1688062;83;21052;-74
2022/04/02 06:31:01;;;;;;;9.93;4.53;;;;;;;0.70;58.58;99748.75;1686354;85;21541;-73
2022/04/02 06:33:30;;;;;;;14.67;6.40;;;;;;;0.76;58.74;99753.86;1686483;85;21612;-73
2022/04/02 06:35:57;;;;;;;18.20;8.37;;;;;;;0.81;58.60;99756.41;1686582;85;21160;-72
2022/04/02 06:38:26;;;;;;;14.67;5.40;;;;;;;0.88;58.60;99758.06;1686510;85;20995;-72
2022/04/02 06:40:53;;;;;;;29.33;13.70;;;;;;;0.92;58.25;99755.05;1686440;85;21490;-71
2022/04/02 06:43:20;;;;;;;20.27;11.07;;;;;;;0.96;58.22;99752.84;1686498;85;21024;-72
2022/04/02 06:45:49;;;;;;;20.17;13.47;;;;;;;0.98;58.02;99758.85;1686791;85;21031;-74
2022/04/02 06:48:16;;;;;;;20.40;13.30;;;;;;;1.00;57.95;99755.39;1686518;84;22326;-73
2022/04/02 06:50:43;;;;;;;17.87;7.63;;;;;;;1.04;57.89;99754.48;1686507;85;21036;-74
2022/04/02 06:53:10;;;;;;;8.97;4.83;;;;;;;1.10;57.90;99754.42;1686507;84;21034;-73
2022/04/02 06:55:37;;;;;;;11.93;6.10;;;;;;;1.13;57.72;99750.96;1686463;85;20997;-77
2022/04/02 06:58:04;;;;;;;12.03;6.63;;;;;;;1.19;58.04;99760.38;1686773;85;21261;-72
2022/04/02 07:00:31;;;;;;;7.67;3.23;;;;;;;1.27;57.77;99764.59;1686563;85;21144;-72
2022/04/02 07:02:58;;;;;;;8.33;3.97;;;;;;;1.31;57.57;99759.84;1686562;85;21465;-72
2022/04/02 07:05:25;;;;;;;7.93;3.47;;;;;;;1.39;57.65;99762.79;1686636;85;21074;-72
2022/04/02 07:07:52;;;;;;;10.23;5.17;;;;;;;1.45;57.55;99764.02;1686735;85;21043;-74
2022/04/02 07:10:20;;;;;;;12.27;4.73;;;;;;;1.50;57.33;99762.25;1686495;85;21141;-73
2022/04/02 07:12:47;;;;;;;15.13;7.50;;;;;;;1.55;57.33;99765.20;1686697;85;21931;-73
2022/04/02 07:15:15;;;;;;;30.17;16.83;;;;;;;1.59;57.07;99764.72;1686428;85;21027;-72
2022/04/02 07:17:43;;;;;;;56.80;28.20;;;;;;;1.60;56.98;99763.84;1686660;85;21028;-76
2022/04/02 07:20:12;;;;;;;43.00;20.80;;;;;;;1.64;56.84;99765.53;1686560;85;21047;-75
2022/04/02 07:22:43;;;;;;;9.85;4.95;;;;;;;1.68;56.81;99769.78;1661909;85;21548;-75
2022/04/02 07:25:12;;;;;;;9.88;4.50;;;;;;;1.74;56.80;99766.27;1692475;83;21799;-74
2022/04/02 07:27:40;;;;;;;44.07;15.73;;;;;;;1.78;56.63;99760.21;1667041;84;21617;-75
2022/04/02 07:30:10;;;;;;;15.23;6.20;;;;;;;1.87;56.86;99757.51;1665797;84;33422;-74
2022/04/02 07:32:37;;;;;;;12.17;5.23;;;;;;;1.96;56.82;99761.70;1692228;84;21038;-74
2022/04/02 07:35:06;;;;;;;21.37;9.27;;;;;;;2.03;56.74;99764.65;1691944;84;21055;-74
2022/04/02 07:37:45;;;;;;;;;;;;;;;2.13;56.66;99769.25;1694185;84;21216;-73
2022/04/02 07:40:28;;;;;;;6.60;2.93;;;;;;;2.19;56.33;99773.92;1692346;84;20195;-75
2022/04/02 07:43:27;;;;;;;19.37;8.00;;;;;;;2.26;56.31;99775.13;1692580;84;20975;-73
2022/04/02 07:46:06;;;;;;;25.37;11.00;;;;;;;2.36;56.28;99772.41;1691021;84;21042;-73
2022/04/02 07:48:37;;;;;;;19.23;7.43;;;;;;;2.48;56.10;99777.84;1698380;82;21045;-73
2022/04/02 07:51:14;;;;;;;18.17;7.53;;;;;;;2.57;56.04;99776.84;1707943;83;21134;-73
2022/04/02 07:53:48;;;;;;;11.13;4.73;;;;;;;2.67;56.14;99781.02;1707924;84;21027;-74
2022/04/02 07:56:30;;;;;;;9.40;4.30;;;;;;;2.76;55.85;99783.91;1707970;84;21574;-73
2022/04/02 07:59:10;;;;;;;10.53;6.63;;;;;;;2.81;55.73;99776.93;1708009;84;21133;-73
2022/04/02 08:01:39;;;;;;;9.90;5.62;;;;;;;2.87;55.48;99782.86;1679949;84;21015;-74
2022/04/02 08:04:07;;;;;;;38.37;16.37;;;;;;;2.99;55.40;99787.42;1707915;84;21798;-73
2022/04/02 08:06:35;;;;;;;15.30;6.00;;;;;;;3.05;55.23;99780.43;1708286;84;20999;-73
2022/04/02 08:09:07;;;;;;;13.47;6.77;;;;;;;3.19;55.35;99785.38;1708041;84;21045;-73
2022/04/02 08:11:38;;;;;;;13.53;6.57;;;;;;;3.29;55.11;99789.95;1708354;84;21038;-74
2022/04/02 08:14:08;;;;;;;10.87;4.13;;;;;;;3.34;54.53;99794.62;1707979;84;21022;-73
2022/04/02 08:16:42;;;;;;;11.60;5.90;;;;;;;3.42;54.65;99788.86;1708382;84;21968;-73
2022/04/02 08:19:05;;;;;;;8.47;3.57;;;;;;;3.59;54.74;99791.15;1706928;84;21535;-73
2022/04/02 08:21:34;;;;;;;9.93;4.63;;;;;;;3.74;54.56;99788.28;1708371;84;21035;-73
2022/04/02 08:24:03;;;;;;;8.33;3.83;;;;;;;3.86;54.13;99790.23;1707959;84;21570;-74
2022/04/02 08:26:56;;;;;;;6.37;2.83;;;;;;;3.96;54.06;99790.02;1707520;84;21042;-73
2022/04/02 08:30:07;;;;;;;6.73;3.67;;;;;;;4.03;53.90;99792.89;1707557;84;21161;-73
2022/04/02 08:33:18;;;;;;;10.57;5.60;;;;;;;4.16;53.72;99799.14;1708220;84;21504;-73
2022/04/02 08:35:59;;;;;;;10.45;4.47;;;;;;;4.29;53.12;99803.61;1707783;84;21444;-72
2022/04/02 08:39:02;;;;;;;7.17;3.77;;;;;;;4.51;52.89;99801.42;1708604;84;21500;-72
2022/04/02 08:41:58;;;;;;;7.00;3.00;;;;;;;4.72;53.15;99803.55;1708176;84;21004;-72
2022/04/02 08:44:48;;;;;;;9.23;4.30;;;;;;;5.02;52.93;99807.62;1707952;84;21952;-72
2022/04/02 08:47:56;;;;;;;12.18;5.70;;;;;;;5.16;52.39;99812.49;1708191;84;21617;-72
2022/04/02 08:50:38;;;;;;;8.97;2.97;;;;;;;5.26;51.74;99802.25;1682563;84;21112;-76
2022/04/02 08:53:54;;;;;;;10.90;2.90;;;;;;;5.34;51.31;99814.61;1670029;83;21016;-72
2022/04/02 08:56:25;;;;;;;4.40;2.50;;;;;;;5.44;51.17;99816.55;1661313;85;21095;-72
2022/04/02 08:59:05;;;;;;;3.07;2.10;;;;;;;5.49;50.79;99810.34;1685564;85;22065;-72
2022/04/02 09:01:55;;;;;;;16.95;8.88;;;;;;;5.52;50.49;99806.36;1685750;85;21027;-72
2022/04/02 09:05:04;;;;;;;24.98;15.43;;;;;;;5.63;50.25;99809.98;1685744;85;21013;-73
2022/04/02 09:08:06;;;;;;;7.10;3.47;;;;;;;5.69;50.15;99810.27;1685829;85;22004;-72
2022/04/02 09:10:57;;;;;;;6.40;3.70;;;;;;;5.80;49.81;99814.28;1683838;84;21012;-72
2022/04/02 09:13:47;;;;;;;7.10;3.37;;;;;;;5.92;49.74;99807.04;1684411;85;21548;-72
2022/04/02 09:16:30;;;;;;;5.95;3.05;;;;;;;6.07;49.69;99811.87;1684557;85;21020;-75
2022/04/02 09:19:12;;;;;;;7.57;3.40;;;;;;;6.24;49.16;99797.92;1685435;85;21973;-73
2022/04/02 09:22:03;;;;;;;13.00;6.33;;;;;;;6.46;48.97;99814.22;1685600;85;21980;-73
2022/04/02 09:24:50;;;;;;;;;;;;;;;6.66;49.00;99812.31;1688526;85;21028;-73
2022/04/02 09:27:59;;;;;;;26.20;12.23;;;;;;;6.79;48.24;99816.68;1685669;85;21815;-73
2022/04/02 09:31:07;;;;;;;11.87;6.67;;;;;;;6.68;47.63;99804.86;1689659;84;21009;-73
2022/04/02 09:33:48;;;;;;;5.33;2.80;;;;;;;6.70;47.68;99812.16;1685653;85;21029;-73
2022/04/02 09:37:10;;;;;;;5.90;2.73;;;;;;;6.79;47.45;99805.84;1678289;85;21080;-73
2022/04/02 09:40:06;;;;;;;3.93;2.10;;;;;;;6.87;47.25;99812.97;1685656;85;21019;-73
2022/04/02 09:42:46;;;;;;;7.60;2.40;;;;;;;7.07;47.13;99802.36;1685599;85;21144;-73
2022/04/02 09:45:20;;;;;;;3.35;1.90;;;;;;;7.29;46.66;99807.73;1685646;85;20992;-73
2022/04/02 09:48:21;;;;;;;5.80;3.10;;;;;;;7.36;46.06;99803.54;1685385;85;21501;-73
2022/04/02 09:50:51;;;;;;;6.83;2.40;;;;;;;7.51;45.97;99804.80;1685745;85;21083;-73
2022/04/02 09:53:29;;;;;;;3.05;2.17;;;;;;;7.58;45.54;99809.34;1685540;85;21035;-73
2022/04/02 09:56:16;;;;;;;5.80;2.20;;;;;;;7.53;44.88;99805.58;1685763;85;21197;-73
2022/04/02 09:59:03;;;;;;;3.70;1.90;;;;;;;7.58;45.03;99799.75;1685665;85;21036;-74
2022/04/02 10:01:57;;;;;;;6.57;2.50;;;;;;;7.67;44.55;99797.73;1685803;85;21036;-73
2022/04/02 10:04:32;;;;;;;8.83;5.30;;;;;;;7.74;44.28;99813.59;1685696;85;21488;-73
2022/04/02 10:07:04;;;;;;;6.33;2.77;;;;;;;7.68;43.94;99813.80;1682227;85;21096;-73
2022/04/02 10:09:37;;;;;;;7.00;3.60;;;;;;;7.69;43.93;99801.16;1685630;85;21958;-73
2022/04/02 10:12:07;;;;;;;5.30;2.17;;;;;;;7.82;43.91;99796.76;1657185;85;21004;-74
2022/04/02 10:14:36;;;;;;;;;;;;;;;8.01;43.71;99802.17;1688195;85;21011;-75
2022/04/02 10:17:08;;;;;;;7.63;3.27;;;;;;;8.20;43.29;99790.61;1685906;85;20143;-74
2022/04/02 10:19:39;;;;;;;6.73;2.40;;;;;;;8.25;43.13;99801.71;1670366;85;20999;-73
2022/04/02 10:22:12;;;;;;;6.30;2.23;;;;;;;8.29;42.77;99809.00;1685852;85;21075;-74
2022/04/02 10:24:44;;;;;;;3.93;2.73;;;;;;;8.44;42.51;99812.36;1685562;85;21087;-73
2022/04/02 10:27:15;;;;;;;7.93;2.37;;;;;;;8.57;42.53;99805.38;1685084;85;21052;-73
2022/04/02 10:30:06;;;;;;;9.50;2.60;;;;;;;8.61;41.99;99817.41;1684204;85;21067;-74
2022/04/02 10:33:26;;;;;;;6.97;2.60;;;;;;;8.69;41.83;99807.05;1685817;85;21008;-74
2022/04/02 10:35:29;;;;;;;33.57;11.23;;;;;;;8.85;41.64;99809.92;1680704;85;21156;-73
2022/04/02 10:38:10;;;;;;;8.43;3.00;;;;;;;8.99;41.48;99804.61;1685694;85;21024;-73
2022/04/02 10:40:53;;;;;;;23.00;10.30;;;;;;;9.05;41.23;99812.20;1685561;85;21008;-74
2022/04/02 10:43:29;;;;;;;18.10;4.63;;;;;;;9.04;40.81;99799.59;1685774;85;21035;-73
2022/04/02 10:45:58;;;;;;;9.07;3.40;;;;;;;9.23;40.56;99803.63;1686002;85;21401;-74
2022/04/02 10:48:30;;;;;;;7.60;2.47;;;;;;;9.25;40.44;99807.47;1685549;85;21056;-85
2022/04/02 10:50:58;;;;;;;8.93;2.60;;;;;;;9.34;40.45;99802.72;1680273;84;22297;-73
2022/04/02 10:53:31;;;;;;;8.93;2.50;;;;;;;9.43;40.44;99805.87;1677085;85;21275;-72
2022/04/02 10:56:01;;;;;;;6.87;2.70;;;;;;;9.51;40.02;99803.32;1705460;84;21605;-74
2022/04/02 10:58:33;;;;;;;5.33;2.20;;;;;;;9.46;39.75;99803.13;1676189;85;21561;-73
2022/04/02 11:01:03;;;;;;;8.97;2.57;;;;;;;9.29;39.49;99800.75;1705237;84;21136;-73
2022/04/02 11:03:40;;;;;;;6.03;2.30;;;;;;;9.21;39.46;99808.52;1675963;85;21477;-72
2022/04/02 11:06:09;;;;;;;7.17;3.33;;;;;;;9.21;39.54;99805.91;1676213;85;21010;-73
2022/04/02 11:08:37;;;;;;;8.57;3.30;;;;;;;9.37;39.32;99806.98;1676132;85;21027;-73
2022/04/02 11:11:20;;;;;;;13.60;6.10;;;;;;;9.42;39.34;99810.22;1675987;85;21015;-72
2022/04/02 11:14:03;;;;;;;6.40;3.33;;;;;;;9.36;38.83;99805.25;1647786;85;21119;-71
2022/04/02 11:16:42;;;;;;;9.53;2.87;;;;;;;9.46;38.66;99799.20;1676110;85;21485;-72
2022/04/02 11:22:15;;;;;;;5.12;2.75;;;;;;;10.06;38.30;99813.18;1676208;85;21044;-74
2022/04/02 11:25:05;;;;;;;15.80;2.80;;;;;;;10.32;38.14;99810.72;1675548;85;21079;-74
2022/04/02 11:27:38;;;;;;;12.35;7.10;;;;;;;10.55;37.91;99803.11;1676143;85;21192;-73
2022/04/02 11:30:10;;;;;;;14.10;7.33;;;;;;;10.91;38.01;99808.85;1676300;85;22041;-73
2022/04/02 11:32:41;;;;;;;11.80;3.80;;;;;;;11.16;37.49;99812.45;1676092;85;21457;-73
2022/04/02 11:35:18;;;;;;;9.90;4.10;;;;;;;11.24;37.25;99810.77;1673912;85;21047;-73
2022/04/02 11:38:14;;;;;;;13.98;3.45;;;;;;;11.36;36.78;99812.34;1676164;85;21005;-73
2022/04/02 11:40:50;;;;;;;8.78;2.20;;;;;;;11.43;36.43;99805.00;1676221;85;21088;-73
2022/04/02 11:43:20;;;;;;;7.25;2.55;;;;;;;11.52;36.10;99797.96;1675909;85;21008;-73
2022/04/02 11:45:49;;;;;;;10.15;4.58;;;;;;;11.55;35.95;99801.73;1676495;85;28213;-76
2022/04/02 11:48:18;;;;;;;16.30;3.80;;;;;;;11.58;35.71;99805.55;1676769;84;21510;-72
2022/04/02 11:50:47;;;;;;;11.88;3.05;;;;;;;11.71;35.64;99805.75;1672679;84;21048;-75
2022/04/02 11:53:14;;;;;;;8.53;2.85;;;;;;;11.75;35.24;99790.69;1671470;85;21127;-74
2022/04/02 11:55:42;;;;;;;13.88;5.28;;;;;;;11.60;34.87;99794.95;1671260;85;21091;-76
2022/04/02 11:58:13;;;;;;;6.92;2.67;;;;;;;11.37;34.61;99793.50;1671597;85;21012;-79
2022/04/02 12:00:43;;;;;;;9.10;3.15;;;;;;;11.22;34.53;99791.16;1671261;85;21044;-74
2022/04/02 12:03:24;;;;;;;;;;;;;;;11.37;34.57;99788.25;1674005;85;21505;-76
2022/04/02 12:05:52;;;;;;;10.00;2.42;;;;;;;11.58;34.46;99792.87;1671336;85;21069;-73
2022/04/02 12:08:30;;;;;;;14.20;4.87;;;;;;;11.63;34.45;99788.70;1671528;85;21024;-72